Time;durP1;ratioP1;P1;durP2;ratioP2;P2;SDS_P1;SDS_P2;PMS_P1;PMS_P2;Temp;Humidity;BMP_temperature;BMP_pressure;BME280_temperature;BME280_humidity;BME280_pressure;Samples;Min_cycle;Max_cycle;Signal;HPM_P1;HPM_P2
2022/07/13 00:02:15;;;;;;;1999.90;999.90;;;;;;;16.70;100.00;95887.50;5057221;28;20198;-57
2022/07/13 00:04:40;;;;;;;1999.90;999.90;;;;;;;16.61;100.00;95890.84;5057836;28;20185;-55
2022/07/13 00:07:05;;;;;;;1999.90;999.90;;;;;;;16.59;100.00;95884.22;5057779;28;20201;-54
2022/07/13 00:09:31;;;;;;;1999.90;999.90;;;;;;;16.55;100.00;95875.25;5056406;28;20189;-54
2022/07/13 00:11:56;;;;;;;1999.90;999.90;;;;;;;16.52;100.00;95865.09;5057152;28;20260;-56
2022/07/13 00:14:22;;;;;;;1999.90;999.90;;;;;;;16.50;100.00;95867.50;5057191;28;20181;-65
2022/07/13 00:16:47;;;;;;;1999.90;999.90;;;;;;;16.48;100.00;95861.63;5057149;28;20246;-64
2022/07/13 00:19:12;;;;;;;1999.90;999.90;;;;;;;16.47;100.00;95868.38;5057127;28;20205;-63
2022/07/13 00:21:38;;;;;;;1999.90;999.90;;;;;;;16.43;100.00;95849.91;5074846;28;20249;-64
2022/07/13 00:24:03;;;;;;;1999.90;999.90;;;;;;;16.42;100.00;95842.88;5057029;28;20242;-64
2022/07/13 00:26:28;;;;;;;1999.90;999.90;;;;;;;16.40;100.00;95836.19;5056859;28;20216;-65
2022/07/13 00:28:54;;;;;;;1999.90;999.90;;;;;;;16.37;100.00;95832.31;5057295;28;20191;-65
2022/07/13 00:31:19;;;;;;;1999.90;999.90;;;;;;;16.25;100.00;95824.72;5057676;28;20213;-62
2022/07/13 00:33:45;;;;;;;1999.90;999.90;;;;;;;16.18;100.00;95813.84;5056929;28;20215;-61
2022/07/13 00:36:10;;;;;;;1999.90;999.90;;;;;;;16.18;100.00;95813.84;5056965;28;20197;-61
2022/07/13 00:38:36;;;;;;;1999.90;999.90;;;;;;;16.19;100.00;95809.91;5056896;28;20244;-61
2022/07/13 00:41:04;;;;;;;1999.90;999.90;;;;;;;16.14;100.00;95818.66;5056835;28;20181;-62
2022/07/13 00:43:29;;;;;;;1999.90;999.90;;;;;;;16.12;100.00;95810.06;5056692;28;20198;-61
2022/07/13 00:45:54;;;;;;;1999.90;999.90;;;;;;;16.10;100.00;95823.50;5057043;28;20205;-63
2022/07/13 00:48:20;;;;;;;1999.90;999.90;;;;;;;16.11;100.00;95811.25;5056621;28;20224;-62
2022/07/13 00:50:45;;;;;;;1999.90;999.90;;;;;;;16.06;100.00;95806.25;5056564;28;20192;-61
2022/07/13 00:53:11;;;;;;;1999.90;999.90;;;;;;;16.07;100.00;95801.53;5056697;28;20185;-67
2022/07/13 00:55:51;;;;;;;1999.90;999.90;;;;;;;16.03;100.00;95801.59;5194574;27;20592;-64
2022/07/13 00:58:17;;;;;;;1999.90;999.90;;;;;;;16.01;100.00;95804.03;5154481;27;20213;-65
2022/07/13 01:00:42;;;;;;;1999.90;999.90;;;;;;;15.97;100.00;95789.56;5155101;27;20178;-65
2022/07/13 01:03:07;;;;;;;1999.90;999.90;;;;;;;15.93;100.00;95797.13;5155060;27;20188;-65
2022/07/13 01:05:33;;;;;;;1999.90;999.90;;;;;;;15.89;100.00;95784.63;5154570;27;20268;-64
2022/07/13 01:08:02;;;;;;;1999.90;999.90;;;;;;;15.92;100.00;95783.78;5155017;27;20189;-60
2022/07/13 01:10:27;;;;;;;1999.90;999.90;;;;;;;15.87;100.00;95776.78;5153983;27;20213;-61
2022/07/13 01:12:53;;;;;;;1999.90;999.90;;;;;;;15.86;100.00;95767.00;5154929;27;20280;-60
2022/07/13 01:15:18;;;;;;;1999.90;999.90;;;;;;;15.86;100.00;95775.25;5154248;27;20201;-62
2022/07/13 01:17:44;;;;;;;1999.90;999.90;;;;;;;15.84;100.00;95772.13;5154342;27;20217;-61
2022/07/13 01:20:10;;;;;;;1999.90;999.90;;;;;;;15.81;100.00;95772.22;5142954;27;20202;-61
2022/07/13 01:22:43;;;;;;;1999.90;999.90;;;;;;;15.78;100.00;95773.84;5133788;27;20277;-61
2022/07/13 01:25:09;;;;;;;1999.90;999.90;;;;;;;15.75;100.00;95777.47;5133981;27;20183;-61
2022/07/13 01:27:37;;;;;;;1999.90;999.90;;;;;;;15.72;100.00;95752.75;5133327;27;20188;-53
2022/07/13 01:30:04;;;;;;;1999.90;999.90;;;;;;;15.70;100.00;95747.66;5133880;27;20182;-59
2022/07/13 01:32:42;;;;;;;1999.90;999.90;;;;;;;15.69;100.00;95739.81;5132907;27;20693;-61
2022/07/13 01:35:07;;;;;;;1999.90;999.90;;;;;;;15.63;100.00;95745.06;5133616;27;20245;-60
2022/07/13 01:37:33;;;;;;;1999.90;999.90;;;;;;;15.57;100.00;95735.78;5133536;27;20190;-61
2022/07/13 01:39:58;;;;;;;1999.90;999.90;;;;;;;15.53;100.00;95734.28;5133650;27;20185;-60
2022/07/13 01:42:23;;;;;;;1999.90;999.90;;;;;;;15.53;100.00;95735.06;5133137;27;20179;-60
2022/07/13 01:44:50;;;;;;;1999.90;999.90;;;;;;;15.54;100.00;95746.84;5133519;27;20182;-63
2022/07/13 01:47:16;;;;;;;1999.90;999.90;;;;;;;15.51;100.00;95737.47;5133301;27;20183;-55
2022/07/13 01:49:41;;;;;;;1999.90;999.90;;;;;;;15.47;100.00;95730.47;5133131;27;20205;-56
2022/07/13 01:52:06;;;;;;;1999.90;999.90;;;;;;;15.47;100.00;95731.25;5133229;27;20182;-54
2022/07/13 01:54:32;;;;;;;1999.90;999.90;;;;;;;15.48;100.00;95723.78;5132917;27;20210;-55
2022/07/13 01:56:57;;;;;;;1999.90;999.90;;;;;;;15.47;100.00;95727.72;5133592;27;20178;-54
2022/07/13 01:59:22;;;;;;;1999.90;999.90;;;;;;;15.41;100.00;95721.94;5132794;27;20186;-53
2022/07/13 02:01:48;;;;;;;1999.90;999.90;;;;;;;15.37;100.00;95710.25;5133489;27;20218;-57
2022/07/13 02:04:13;;;;;;;1999.90;999.90;;;;;;;15.38;100.00;95706.31;5133688;27;20239;-62
2022/07/13 02:06:38;;;;;;;1999.90;999.90;;;;;;;15.36;100.00;95703.19;5122547;28;20199;-63
2022/07/13 02:09:04;;;;;;;1999.90;999.90;;;;;;;15.36;100.00;95700.44;5119255;28;20193;-63
2022/07/13 02:11:29;;;;;;;1999.90;999.90;;;;;;;15.33;100.00;95709.50;5119167;28;20183;-63
2022/07/13 02:13:55;;;;;;;1999.90;999.90;;;;;;;15.32;100.00;95710.72;5118858;28;20229;-63
2022/07/13 02:16:21;;;;;;;1999.90;999.90;;;;;;;15.29;100.00;95713.53;5119468;28;20179;-63
2022/07/13 02:18:47;;;;;;;1999.90;999.90;;;;;;;15.27;100.00;95697.44;5119343;28;20544;-64
2022/07/13 02:21:12;;;;;;;1999.90;999.90;;;;;;;15.24;100.00;95695.56;5118839;28;20199;-63
2022/07/13 02:23:38;;;;;;;1999.90;999.90;;;;;;;15.21;100.00;95685.41;5118825;28;20179;-63
2022/07/13 02:26:04;;;;;;;1999.90;999.90;;;;;;;15.19;100.00;95689.78;5118937;28;20191;-62
2022/07/13 02:28:29;;;;;;;1999.90;999.90;;;;;;;15.19;100.00;95687.03;5118600;28;20198;-65
2022/07/13 02:30:54;;;;;;;1999.90;999.90;;;;;;;15.10;100.00;95693.09;5118454;28;20183;-64
2022/07/13 02:33:20;;;;;;;1999.90;999.90;;;;;;;15.10;100.00;95693.09;5118621;28;20212;-64
2022/07/13 02:35:45;;;;;;;1999.90;999.90;;;;;;;15.09;100.00;95697.06;5118598;28;20203;-64
2022/07/13 02:38:10;;;;;;;1999.90;999.90;;;;;;;15.08;100.00;95683.75;5118818;28;20599;-64
2022/07/13 02:40:36;;;;;;;1999.90;999.90;;;;;;;15.05;100.00;95668.06;5118679;28;20213;-56
2022/07/13 02:43:01;;;;;;;1999.90;999.90;;;;;;;15.04;100.00;95663.78;5118586;28;20175;-55
2022/07/13 02:45:27;;;;;;;1999.90;999.90;;;;;;;15.02;100.00;95671.66;5118449;28;20197;-54
2022/07/13 02:47:52;;;;;;;1999.90;999.90;;;;;;;14.99;100.00;95654.03;5136364;28;20187;-55
2022/07/13 02:50:18;;;;;;;1999.90;999.90;;;;;;;14.98;100.00;95654.47;5118865;28;20273;-55
2022/07/13 02:52:43;;;;;;;1999.90;999.90;;;;;;;14.94;100.00;95643.53;5118611;28;20183;-54
2022/07/13 02:55:09;;;;;;;1999.90;999.90;;;;;;;14.92;100.00;95650.66;5118621;28;20203;-55
2022/07/13 02:57:34;;;;;;;1999.90;999.90;;;;;;;14.91;100.00;95633.41;5118108;28;20244;-55
2022/07/13 03:00:00;;;;;;;1999.90;999.90;;;;;;;14.89;100.00;95635.78;5118292;28;20179;-63
2022/07/13 03:02:25;;;;;;;1999.90;999.90;;;;;;;14.90;100.00;95620.81;5118295;28;20187;-64
2022/07/13 03:04:51;;;;;;;1999.90;999.90;;;;;;;14.87;100.00;95616.19;5118336;28;20182;-63
2022/07/13 03:07:16;;;;;;;1999.90;999.90;;;;;;;14.84;100.00;95608.78;5117969;28;20183;-64
2022/07/13 03:09:42;;;;;;;1999.90;999.90;;;;;;;14.82;100.00;95602.94;5136448;28;20203;-64
2022/07/13 03:12:07;;;;;;;1999.90;999.90;;;;;;;14.81;100.00;95601.38;5118357;28;20210;-63
2022/07/13 03:14:33;;;;;;;1999.90;999.90;;;;;;;14.77;100.00;95594.41;5117946;28;20297;-64
2022/07/13 03:16:58;;;;;;;1999.90;999.90;;;;;;;14.73;100.00;95578.00;5117809;28;20270;-63
2022/07/13 03:19:23;;;;;;;1999.90;999.90;;;;;;;14.73;100.00;95577.22;5117716;28;20226;-55
2022/07/13 03:21:49;;;;;;;1999.90;999.90;;;;;;;14.72;100.00;95568.19;5117872;28;20270;-54
2022/07/13 03:24:14;;;;;;;1999.90;999.90;;;;;;;14.74;100.00;95568.53;5118118;28;20203;-54
2022/07/13 03:26:39;;;;;;;1999.90;999.90;;;;;;;14.72;100.00;95579.19;5118044;28;20186;-54
2022/07/13 03:29:05;;;;;;;1999.90;999.90;;;;;;;14.74;100.00;95585.03;5117789;28;20190;-55
2022/07/13 03:31:30;;;;;;;1999.90;999.90;;;;;;;14.74;100.00;95585.03;5117396;28;20186;-57
2022/07/13 03:33:56;;;;;;;1999.90;999.90;;;;;;;14.78;100.00;95584.94;5117854;28;20207;-57
2022/07/13 03:36:21;;;;;;;1999.90;999.90;;;;;;;14.81;100.00;95584.09;5136067;28;20186;-67
2022/07/13 03:38:46;;;;;;;1999.90;999.90;;;;;;;14.87;100.00;95576.91;5117719;28;20191;-65
2022/07/13 03:41:12;;;;;;;1999.90;999.90;;;;;;;15.00;100.00;95581.31;5117546;28;20194;-65
2022/07/13 03:43:37;;;;;;;1999.90;999.90;;;;;;;15.20;100.00;95601.31;5135829;28;20248;-65
2022/07/13 03:46:02;;;;;;;1999.90;999.90;;;;;;;15.41;100.00;95616.59;5117585;28;20274;-65
2022/07/13 03:48:28;;;;;;;1999.90;999.90;;;;;;;15.57;100.00;95649.63;5117912;28;20190;-65
2022/07/13 03:50:53;;;;;;;1999.90;999.90;;;;;;;15.62;100.00;95655.41;5117514;28;20191;-65
2022/07/13 03:53:19;;;;;;;1999.90;999.90;;;;;;;15.76;100.00;95674.34;5117738;28;20191;-55
2022/07/13 03:55:58;;;;;;;1999.90;999.90;;;;;;;15.76;100.00;95688.13;5117043;28;20183;-63
2022/07/13 03:58:24;;;;;;;1999.90;999.90;;;;;;;15.91;100.00;95692.09;5117316;28;20187;-62
2022/07/13 04:00:49;;;;;;;1999.90;999.90;;;;;;;16.04;100.00;95712.25;5117040;28;20277;-62
2022/07/13 04:03:15;;;;;;;1999.90;999.90;;;;;;;16.20;100.00;95720.50;5117115;28;20175;-62
2022/07/13 04:05:40;;;;;;;1999.90;999.90;;;;;;;16.38;100.00;95729.13;5117001;28;20248;-62
2022/07/13 04:08:05;;;;;;;1999.90;999.90;;;;;;;16.68;100.00;95746.50;5117330;28;20187;-62
2022/07/13 04:10:31;;;;;;;1999.90;999.90;;;;;;;17.09;100.00;95779.69;5117091;28;20191;-63
2022/07/13 04:12:58;;;;;;;1999.90;999.90;;;;;;;17.62;100.00;95806.63;5117000;28;20187;-68
2022/07/13 04:15:23;;;;;;;1999.90;999.90;;;;;;;18.01;100.00;95828.38;5116999;28;20211;-62
2022/07/13 04:17:49;;;;;;;1999.90;999.90;;;;;;;18.38;100.00;95852.53;5117669;28;20174;-62
2022/07/13 04:20:14;;;;;;;1999.90;999.90;;;;;;;18.76;100.00;95869.91;5117050;28;20233;-62
2022/07/13 04:22:39;;;;;;;1999.90;999.90;;;;;;;19.02;100.00;95899.13;5116834;28;20221;-65
2022/07/13 04:25:06;;;;;;;1999.90;999.90;;;;;;;19.48;100.00;95903.91;5116862;28;20194;-64
2022/07/13 04:27:31;;;;;;;1999.90;999.90;;;;;;;19.72;100.00;95916.13;5116884;28;20175;-62
2022/07/13 04:29:57;;;;;;;1999.90;999.90;;;;;;;20.04;100.00;95924.09;5116628;28;20190;-62
2022/07/13 04:32:22;;;;;;;1999.90;999.90;;;;;;;20.27;100.00;95936.75;5116785;28;20194;-69
2022/07/13 04:34:48;;;;;;;1999.90;999.90;;;;;;;20.58;100.00;95954.97;5116485;28;20298;-68
2022/07/13 04:37:13;;;;;;;1999.90;999.90;;;;;;;20.83;100.00;95960.34;5116411;28;20190;-68
2022/07/13 04:39:40;;;;;;;1999.90;999.90;;;;;;;21.08;100.00;95967.72;5116603;28;20190;-67
2022/07/13 04:42:05;;;;;;;1999.90;999.90;;;;;;;21.25;100.00;95969.03;5117192;28;20195;-66
2022/07/13 04:44:30;;;;;;;1999.90;999.90;;;;;;;21.26;100.00;95979.69;5116771;28;20259;-67
2022/07/13 04:46:56;;;;;;;1999.90;999.90;;;;;;;21.36;100.00;95970.16;5116723;28;20179;-66
2022/07/13 04:49:22;;;;;;;1999.90;999.90;;;;;;;21.70;100.00;95978.25;5116660;28;20211;-62
2022/07/13 04:51:49;;;;;;;1999.90;999.90;;;;;;;21.89;100.00;95976.31;5116582;28;20187;-57
2022/07/13 04:54:18;;;;;;;1999.90;999.90;;;;;;;22.01;100.00;95978.94;5116609;28;20211;-57
2022/07/13 04:56:44;;;;;;;1999.90;999.90;;;;;;;22.36;100.00;95982.94;5116626;28;20187;-57
2022/07/13 04:59:11;;;;;;;1999.90;999.90;;;;;;;22.61;100.00;95984.63;5116299;28;20194;-56
2022/07/13 05:01:36;;;;;;;1999.90;999.90;;;;;;;22.89;100.00;95991.69;5116275;28;20224;-56
2022/07/13 05:04:02;;;;;;;1999.90;999.90;;;;;;;23.45;99.93;95999.44;5116265;28;20183;-57
2022/07/13 05:06:28;;;;;;;1999.90;999.90;;;;;;;23.83;95.98;95994.72;5116396;28;20248;-56
2022/07/13 05:08:54;;;;;;;1999.90;999.90;;;;;;;24.17;92.36;96005.34;5116089;28;20183;-62
2022/07/13 05:11:19;;;;;;;1999.90;999.90;;;;;;;24.27;91.19;95997.66;5134520;28;20247;-55
2022/07/13 05:13:45;;;;;;;1999.90;999.90;;;;;;;24.36;90.47;96009.53;5115951;28;20197;-55
2022/07/13 05:16:10;;;;;;;1999.90;999.90;;;;;;;24.51;88.20;95995.63;5116521;28;20179;-55
2022/07/13 05:18:36;;;;;;;1999.90;999.90;;;;;;;24.51;88.89;95995.63;5115983;28;20175;-54
2022/07/13 05:21:01;;;;;;;1999.90;999.90;;;;;;;24.72;88.26;96000.06;5116019;28;20204;-60
2022/07/13 05:23:26;;;;;;;1999.90;999.90;;;;;;;24.93;86.48;95994.13;5116038;28;20238;-54
2022/07/13 05:25:52;;;;;;;1999.90;999.90;;;;;;;25.25;83.97;95995.16;5116378;28;20616;-60
2022/07/13 05:28:17;;;;;;;1999.90;999.90;;;;;;;25.42;83.21;95996.19;5116241;28;20212;-64
2022/07/13 05:30:43;;;;;;;1999.90;999.90;;;;;;;25.57;82.05;95996.19;5115996;28;20179;-61
2022/07/13 05:33:08;;;;;;;1999.90;999.90;;;;;;;25.78;81.01;96000.56;5116182;28;20191;-60
2022/07/13 05:35:33;;;;;;;1999.90;999.90;;;;;;;26.13;78.92;96004.88;5115665;28;20218;-61
2022/07/13 05:37:59;;;;;;;1999.90;999.90;;;;;;;26.48;76.23;96018.81;5116315;28;20183;-61
2022/07/13 05:40:24;;;;;;;1999.90;999.90;;;;;;;27.02;74.20;96012.28;5116194;28;20274;-61
2022/07/13 05:42:50;;;;;;;1999.90;999.90;;;;;;;27.91;69.58;96015.31;5119204;28;20190;-64
2022/07/13 05:45:15;;;;;;;1999.90;999.90;;;;;;;27.73;68.90;96021.31;5137722;28;20278;-60
2022/07/13 05:47:45;;;;;;;1999.90;999.90;;;;;;;27.53;69.45;96018.59;5119180;28;20270;-66
2022/07/13 05:50:12;;;;;;;1999.90;999.90;;;;;;;27.70;69.28;96010.28;5119590;28;20179;-63
2022/07/13 05:52:38;;;;;;;1999.90;999.90;;;;;;;28.16;66.87;96008.03;5118906;28;20183;-63
2022/07/13 05:55:04;;;;;;;1999.90;999.90;;;;;;;28.50;64.50;95992.88;5119339;28;20186;-63
2022/07/13 05:57:30;;;;;;;1999.90;999.90;;;;;;;28.85;63.55;95992.44;5119178;28;20182;-64
2022/07/13 05:59:55;;;;;;;1999.90;999.90;;;;;;;29.57;60.75;95998.94;5118873;28;20183;-60
2022/07/13 06:02:20;;;;;;;1999.90;999.90;;;;;;;29.89;57.91;95994.53;5119066;28;20184;-68
2022/07/13 06:04:46;;;;;;;1999.90;999.90;;;;;;;30.23;56.43;95998.84;5118867;28;20226;-60
2022/07/13 06:07:12;;;;;;;1999.90;999.90;;;;;;;30.47;55.22;95985.66;5119004;28;20186;-61
2022/07/13 06:09:37;;;;;;;1999.90;999.90;;;;;;;30.25;55.76;95990.63;5119202;28;20205;-61
2022/07/13 06:12:03;;;;;;;1999.90;999.90;;;;;;;30.39;56.52;95983.91;5118843;28;20179;-63
2022/07/13 06:14:28;;;;;;;1999.90;999.90;;;;;;;31.20;51.78;95988.84;5118766;28;20202;-61
2022/07/13 06:16:53;;;;;;;1999.90;999.90;;;;;;;31.84;49.81;95973.94;5118683;28;20185;-60
2022/07/13 06:19:19;;;;;;;1999.90;999.90;;;;;;;32.03;48.98;95972.69;5118799;28;20202;-60
2022/07/13 06:21:44;;;;;;;1999.90;999.90;;;;;;;32.58;46.68;95968.44;5118844;28;20242;-62
2022/07/13 06:24:09;;;;;;;1999.90;999.90;;;;;;;32.96;45.20;95970.00;5119056;28;20195;-56
2022/07/13 06:26:35;;;;;;;1999.90;999.90;;;;;;;32.90;44.67;95970.09;5118630;28;20243;-57
2022/07/13 06:29:00;;;;;;;1999.90;999.90;;;;;;;33.10;44.14;95971.59;5118801;28;20285;-55
2022/07/13 06:31:25;;;;;;;1999.90;999.90;;;;;;;32.80;44.54;95985.13;5118268;28;20179;-57
2022/07/13 06:33:52;;;;;;;1999.90;999.90;;;;;;;33.30;43.45;95980.28;5118697;28;20175;-56
2022/07/13 06:36:18;;;;;;;1999.90;999.90;;;;;;;33.46;42.03;95976.44;5118619;28;20179;-56
2022/07/13 06:38:44;;;;;;;1999.90;999.90;;;;;;;33.75;42.00;95983.16;5118295;28;20183;-66
2022/07/13 06:41:09;;;;;;;1999.90;999.90;;;;;;;34.04;41.04;95970.03;5118539;28;20189;-59
2022/07/13 06:43:34;;;;;;;1999.90;999.90;;;;;;;34.00;41.71;95970.34;5118182;28;20278;-60
2022/07/13 06:46:00;;;;;;;1999.90;999.90;;;;;;;33.60;40.85;95972.34;5118731;28;20256;-59
2022/07/13 06:48:26;;;;;;;1999.90;999.90;;;;;;;33.49;42.30;95971.75;5118328;28;20175;-59
2022/07/13 06:50:51;;;;;;;1999.90;999.90;;;;;;;33.82;40.37;95966.28;5118363;28;20185;-59
2022/07/13 06:53:16;;;;;;;1999.90;999.90;;;;;;;34.43;39.06;95961.53;5118424;28;20171;-60
2022/07/13 06:55:42;;;;;;;1999.90;999.90;;;;;;;34.46;38.99;95966.13;5118237;28;20183;-60
2022/07/13 06:58:07;;;;;;;1999.90;999.90;;;;;;;34.82;37.87;95958.66;5118261;28;20228;-64
2022/07/13 07:00:33;;;;;;;1999.90;999.90;;;;;;;35.35;35.78;95965.69;5118124;28;20201;-64
2022/07/13 07:02:58;;;;;;;1999.90;999.90;;;;;;;35.83;34.87;95959.34;5118353;28;20183;-63
2022/07/13 07:05:24;;;;;;;1999.90;999.90;;;;;;;35.95;34.66;95952.78;5117969;28;20202;-63
2022/07/13 07:07:50;;;;;;;1999.90;999.90;;;;;;;36.64;33.10;95951.88;5118473;28;20190;-62
2022/07/13 07:10:15;;;;;;;1999.90;999.90;;;;;;;36.94;32.07;95965.50;5117717;28;20179;-64
2022/07/13 07:12:40;;;;;;;1999.90;999.90;;;;;;;36.94;32.03;95968.34;5118131;28;20179;-65
2022/07/13 07:15:07;;;;;;;1999.90;999.90;;;;;;;36.60;32.63;95962.88;5117897;28;20190;-62
2022/07/13 07:17:32;;;;;;;1999.90;999.90;;;;;;;37.28;31.12;95963.91;5117800;28;20187;-61
2022/07/13 07:20:03;;;;;;;1999.90;999.90;;;;;;;37.86;30.54;95960.94;5135644;27;20205;-47
2022/07/13 07:22:29;;;;;;;1999.90;999.90;;;;;;;37.94;30.57;95961.69;5118272;28;20244;-47
2022/07/13 07:24:56;;;;;;;1999.90;999.90;;;;;;;37.71;30.50;95969.50;5117487;28;20210;-48
2022/07/13 07:27:22;;;;;;;1999.90;999.90;;;;;;;38.32;29.05;95973.88;5117749;28;20179;-48
2022/07/13 07:29:47;;;;;;;1999.90;999.90;;;;;;;38.69;27.51;95977.97;5117795;28;20183;-54
2022/07/13 07:32:12;;;;;;;1999.90;999.90;;;;;;;38.86;27.02;95967.41;5117630;28;20186;-47
2022/07/13 07:34:38;;;;;;;1999.90;999.90;;;;;;;39.62;24.60;95975.63;5117588;28;20199;-52
2022/07/13 07:37:03;;;;;;;1999.90;999.90;;;;;;;38.70;25.05;95971.69;5118099;28;20186;-69
2022/07/13 07:39:29;;;;;;;1999.90;999.90;;;;;;;38.76;25.18;95966.53;5117986;28;20194;-68
2022/07/13 07:41:55;;;;;;;1999.90;999.90;;;;;;;38.63;25.30;95972.47;5117352;28;20189;-67
2022/07/13 07:44:20;;;;;;;1999.90;999.90;;;;;;;38.68;25.80;95977.22;5117297;28;20199;-68
2022/07/13 07:46:47;;;;;;;1999.90;999.90;;;;;;;39.86;24.75;95978.53;5117805;28;20179;-67
2022/07/13 07:49:12;;;;;;;1999.90;999.90;;;;;;;39.29;25.47;95967.03;5117211;28;20203;-66
2022/07/13 07:51:37;;;;;;;1999.90;999.90;;;;;;;38.71;26.78;95964.63;5117533;28;20171;-54
2022/07/13 07:54:03;;;;;;;1999.90;999.90;;;;;;;39.01;25.26;95963.78;5117561;28;20179;-54
2022/07/13 07:56:28;;;;;;;1999.90;999.90;;;;;;;39.06;25.70;95965.66;5117211;28;20227;-66
2022/07/13 07:58:53;;;;;;;1999.90;999.90;;;;;;;39.47;24.44;95970.03;5135221;28;20187;-65
2022/07/13 08:01:19;;;;;;;1999.90;999.90;;;;;;;38.04;25.74;95964.72;5117050;28;20194;-62
2022/07/13 08:03:45;;;;;;;1999.90;999.90;;;;;;;37.68;26.56;95964.94;5115994;28;20179;-62
2022/07/13 08:06:11;;;;;;;1999.90;999.90;;;;;;;37.69;26.92;95962.84;5117273;28;20189;-66
2022/07/13 08:08:37;;;;;;;1999.90;999.90;;;;;;;37.17;26.64;95961.41;5116935;28;20258;-68
2022/07/13 08:11:03;;;;;;;1999.90;999.90;;;;;;;37.87;26.91;95961.72;5117549;28;20182;-52
2022/07/13 08:13:30;;;;;;;1999.90;999.90;;;;;;;37.15;26.20;95961.19;5117092;28;20179;-69
2022/07/13 08:15:55;;;;;;;1999.90;999.90;;;;;;;36.72;27.22;95955.53;5134946;28;20179;-65
2022/07/13 08:18:21;;;;;;;1999.90;999.90;;;;;;;36.96;26.86;95966.44;5116936;28;20182;-66
2022/07/13 08:20:46;;;;;;;1999.90;999.90;;;;;;;36.29;27.13;95967.63;5116741;28;20199;-67
2022/07/13 08:25:55;;;;;;;1999.90;999.90;;;;;;;36.51;27.42;95964.16;5135355;28;20218;-66
2022/07/13 08:28:20;;;;;;;1999.90;999.90;;;;;;;37.32;26.93;95958.59;5116859;28;20183;-61
2022/07/13 08:30:46;;;;;;;1999.90;999.90;;;;;;;37.38;26.84;95969.81;5117249;28;20182;-56
2022/07/13 08:33:11;;;;;;;1999.90;999.90;;;;;;;36.87;26.57;95969.06;5116632;28;20259;-60
2022/07/13 08:38:36;;;;;;;1999.90;999.90;;;;;;;35.24;28.20;95977.28;5135415;28;20189;-59
2022/07/13 08:41:02;;;;;;;1999.90;999.90;;;;;;;35.21;28.61;95962.09;5117034;28;20182;-61
2022/07/13 08:43:28;;;;;;;1999.90;999.90;;;;;;;35.09;28.73;95971.44;5116303;28;20183;-60
2022/07/13 08:45:54;;;;;;;1999.90;999.90;;;;;;;34.82;29.29;95965.09;5116108;28;20201;-60
2022/07/13 08:48:31;;;;;;;1999.90;999.90;;;;;;;34.87;29.01;95960.59;5116179;28;20247;-60
2022/07/13 08:50:58;;;;;;;1999.90;999.90;;;;;;;34.69;28.56;95955.81;5134437;28;20171;-68
2022/07/13 08:53:24;;;;;;;1999.90;999.90;;;;;;;34.25;29.00;95957.47;5116423;28;20179;-69
2022/07/13 08:55:50;;;;;;;1999.90;999.90;;;;;;;34.23;29.16;95953.66;5116036;28;20212;-69
2022/07/13 08:58:18;;;;;;;1999.90;999.90;;;;;;;33.55;30.00;95961.88;5115824;28;20186;-69
2022/07/13 09:00:44;;;;;;;1999.90;999.90;;;;;;;33.37;30.81;95954.19;5116248;28;20197;-68
2022/07/13 09:03:09;;;;;;;1999.90;999.90;;;;;;;32.83;30.71;95953.72;5116127;28;20257;-70
2022/07/13 09:05:35;;;;;;;1999.90;999.90;;;;;;;33.43;31.03;95954.84;5134435;28;20202;-63
2022/07/13 09:08:05;;;;;;;1999.90;999.90;;;;;;;32.61;30.15;95965.34;5116394;28;20262;-58
2022/07/13 09:10:31;;;;;;;1999.90;999.90;;;;;;;32.00;30.63;95965.28;5116483;28;20175;-58
2022/07/13 09:12:57;;;;;;;1999.90;999.90;;;;;;;32.11;29.56;95958.75;5116006;28;20175;-59
2022/07/13 09:15:22;;;;;;;1999.90;999.90;;;;;;;32.10;29.80;95957.97;5116013;28;20183;-60
2022/07/13 09:17:47;;;;;;;1999.90;999.90;;;;;;;32.83;29.53;95956.56;5119613;28;20217;-60
2022/07/13 09:20:12;;;;;;;1999.90;999.90;;;;;;;33.38;29.15;95955.72;5119378;28;20207;-60
2022/07/13 09:23:02;;;;;;;1999.90;999.90;;;;;;;34.31;27.48;95948.84;5119795;28;20175;-60
2022/07/13 09:25:37;;;;;;;1999.90;999.90;;;;;;;34.59;25.79;95963.28;5106723;28;20206;-68
2022/07/13 09:28:16;;;;;;;1999.90;999.90;;;;;;;34.10;26.82;95962.16;5119365;28;20185;-62
2022/07/13 09:30:43;;;;;;;1999.90;999.90;;;;;;;34.29;27.70;95957.13;5119497;28;20183;-64
2022/07/13 09:33:08;;;;;;;1999.90;999.90;;;;;;;34.56;26.88;95958.69;5119451;28;20179;-63
2022/07/13 09:35:49;;;;;;;1999.90;999.90;;;;;;;34.61;26.36;95952.88;5119221;28;20212;-63
2022/07/13 09:38:36;;;;;;;1999.90;999.90;;;;;;;33.98;27.50;95967.31;5119061;28;20182;-64
2022/07/13 09:41:19;;;;;;;1999.90;999.90;;;;;;;34.25;27.95;95959.53;5119197;28;20221;-63
2022/07/13 09:46:35;;;;;;;1999.90;999.90;;;;;;;34.24;28.33;95961.63;5137511;28;20264;-65
2022/07/13 09:49:00;;;;;;;1999.90;999.90;;;;;;;33.89;28.50;95964.88;5119614;28;20183;-63
2022/07/13 09:51:26;;;;;;;1999.90;999.90;;;;;;;34.07;28.26;95958.34;5119105;28;20190;-66
2022/07/13 09:53:57;;;;;;;1999.90;999.90;;;;;;;34.08;27.70;95964.81;5119409;28;20179;-61
2022/07/13 09:56:24;;;;;;;1999.90;999.90;;;;;;;33.22;29.16;95965.22;5119511;28;20179;-61
2022/07/13 09:58:51;;;;;;;1999.90;999.90;;;;;;;32.59;29.31;95959.41;5119497;28;20179;-60
2022/07/13 10:01:16;;;;;;;1999.90;999.90;;;;;;;32.85;28.71;95953.94;5119673;28;20183;-45
2022/07/13 10:03:43;;;;;;;1999.90;999.90;;;;;;;32.40;29.80;95958.66;5119177;28;20216;-64
2022/07/13 10:06:09;;;;;;;1999.90;999.90;;;;;;;32.71;29.25;95958.00;5119115;28;20273;-61
2022/07/13 10:08:34;;;;;;;1999.90;999.90;;;;;;;32.50;28.71;95951.31;5119534;28;20214;-62
2022/07/13 10:11:01;;;;;;;1999.90;999.90;;;;;;;32.65;28.51;95945.97;5119204;28;20190;-62
2022/07/13 10:13:26;;;;;;;1999.90;999.90;;;;;;;32.73;26.33;95951.78;5119204;28;20264;-62
2022/07/13 10:15:51;;;;;;;1999.90;999.90;;;;;;;32.78;26.34;95951.69;5119067;28;20187;-60
2022/07/13 10:18:28;;;;;;;1999.90;999.90;;;;;;;33.05;26.79;95947.72;5137221;28;20184;-61
2022/07/13 10:21:04;;;;;;;1999.90;999.90;;;;;;;33.55;27.34;95953.38;5118703;28;20199;-60
2022/07/13 10:23:36;;;;;;;1999.90;999.90;;;;;;;32.75;27.14;95955.63;5118948;28;20210;-49
2022/07/13 10:26:02;;;;;;;1999.90;999.90;;;;;;;33.22;27.24;95953.88;5118960;27;20234;-50
2022/07/13 10:28:28;;;;;;;1999.90;999.90;;;;;;;32.70;27.79;95953.59;5118888;28;20187;-51
2022/07/13 10:30:53;;;;;;;1999.90;999.90;;;;;;;33.09;28.22;95945.34;5118685;28;20191;-48
2022/07/13 10:33:21;;;;;;;1999.90;999.90;;;;;;;33.13;29.14;95957.13;5119427;28;20185;-50
2022/07/13 10:35:55;;;;;;;1999.90;999.90;;;;;;;32.52;30.19;95959.28;5119172;28;20186;-47
2022/07/13 10:38:27;;;;;;;1999.90;999.90;;;;;;;34.01;28.43;95948.44;5118575;28;20273;-54
2022/07/13 10:41:19;;;;;;;1999.90;999.90;;;;;;;32.88;29.85;95946.47;5118607;28;20181;-46
2022/07/13 10:43:52;;;;;;;1999.90;999.90;;;;;;;35.51;27.73;95941.78;5118494;28;20191;-46
2022/07/13 10:46:46;;;;;;;1999.90;999.90;;;;;;;34.59;28.87;95946.22;5118369;28;20174;-48
2022/07/13 10:49:30;;;;;;;1999.90;999.90;;;;;;;35.12;28.29;95948.38;5118619;28;20179;-45
2022/07/13 10:51:57;;;;;;;1999.90;999.90;;;;;;;35.02;28.41;95949.41;5118473;28;20203;-45
2022/07/13 10:54:23;;;;;;;1999.90;999.90;;;;;;;34.89;28.87;95949.47;5118346;28;20228;-45
2022/07/13 10:57:12;;;;;;;1999.90;999.90;;;;;;;33.84;29.60;95949.50;5118519;28;20171;-54